Wethersfield, Connecticut
Current Conditions -  °F | °C
As of 5:53 PM on Tuesday 27 Jan 2015 (Local Time) from KHFD Reporting Station
Overcast Overcast  
Wind Chill:   Ceiling: 4300
Heat Index: 19°   Visibility: 8mi
Dew Point:   Wind: 12mph
Humidity: 59%   Direction: 330°NNW
Pressure: 29.67"   Gusts: 21mph
Location:  41.7096°N, 72.6617°W
Report Text: KHFD 272253Z 33010G18KT 280V350 8SM OVC043 M07/M14 A2967 RMK AO2 SLP047 T10721139 $
Loading
Personal Weather Stations






























Interactive Weather Map New forecast layout! Learn more

10-Day Weather Forecast

Advertisements
Track Severe Weather on mobile